TimeCST,TemperatureF,Dew PointF,Humidity,Sea Level PressureIn,VisibilityMPH,Wind Direction,Wind SpeedMPH,Gust SpeedMPH,PrecipitationIn,Events,Conditions,WindDirDegrees,DateUTC
12:54 AM,-5.1,-9.9,80,30.53,10.0,NNW,4.6,-,N/A,,Scattered Clouds,340,2001-01-01 06:54:00
1:54 AM,-4.0,-9.9,76,30.54,10.0,NNW,5.8,-,N/A,,Mostly Cloudy,340,2001-01-01 07:54:00
2:54 AM,-0.0,-6.0,76,30.55,10.0,NW,8.1,-,N/A,,Overcast,320,2001-01-01 08:54:00
3:54 AM,-0.9,-7.1,75,30.55,10.0,NNW,8.1,-,N/A,,Partly Cloudy,330,2001-01-01 09:54:00
4:54 AM,-2.0,-8.0,76,30.55,10.0,WNW,4.6,-,N/A,,Clear,290,2001-01-01 10:54:00
5:54 AM,-2.9,-8.0,79,30.56,10.0,NW,5.8,-,N/A,,Clear,310,2001-01-01 11:54:00
6:54 AM,-6.0,-9.0,87,30.58,10.0,Calm,Calm,-,N/A,,Clear,0,2001-01-01 12:54:00
7:41 AM,-5.8,-9.4,84,30.48,10.0,WNW,4.6,-,N/A,,Mostly Cloudy,290,2001-01-01 13:41:00
7:54 AM,-4.0,-8.0,83,30.59,10.0,West,4.6,-,N/A,,Mostly Cloudy,270,2001-01-01 13:54:00
8:23 AM,-2.2,-5.8,85,30.49,10.0,NNW,5.8,-,N/A,,Scattered Clouds,330,2001-01-01 14:23:00
8:54 AM,-0.9,-7.1,75,30.60,10.0,NW,5.8,-,N/A,,Partly Cloudy,320,2001-01-01 14:54:00
9:20 AM,-0.4,-7.6,72,30.51,10.0,NNW,3.5,-,N/A,,Mostly Cloudy,330,2001-01-01 15:20:00
9:54 AM,1.0,-6.0,72,30.62,10.0,NNW,3.5,-,0.00,Snow,Light Snow,340,2001-01-01 15:54:00
10:54 AM,5.0,-0.9,76,30.62,9.0,NNW,6.9,-,0.00,Snow,Light Snow,340,2001-01-01 16:54:00
11:02 AM,6.8,-0.4,72,30.53,9.0,North,5.8,-,0.00,Snow,Light Snow,10,2001-01-01 17:02:00
11:10 AM,6.8,-0.4,72,30.53,9.0,North,8.1,-,0.00,Snow,Light Snow,10,2001-01-01 17:10:00
11:54 AM,8.1,3.0,80,30.62,9.0,NNE,8.1,-,0.00,Snow,Light Snow,30,2001-01-01 17:54:00
12:10 PM,8.6,3.2,79,30.51,10.0,NNE,9.2,-,0.00,Snow,Light Snow,20,2001-01-01 18:10:00
12:41 PM,10.4,5.0,79,30.51,10.0,NNE,6.9,-,0.00,Snow,Light Snow,30,2001-01-01 18:41:00
12:54 PM,10.9,5.0,77,30.60,9.0,NNE,8.1,-,0.00,Snow,Light Snow,20,2001-01-01 18:54:00
1:54 PM,12.0,7.0,80,30.59,9.0,North,6.9,-,0.00,Snow,Light Snow,10,2001-01-01 19:54:00
2:29 PM,12.2,8.6,85,30.50,9.0,NNW,4.6,-,0.00,Snow,Light Snow,340,2001-01-01 20:29:00
2:54 PM,14.0,9.0,80,30.59,10.0,North,6.9,-,0.00,Snow,Light Snow,360,2001-01-01 20:54:00
3:54 PM,15.1,9.0,77,30.59,10.0,NE,6.9,-,0.00,Snow,Light Snow,40,2001-01-01 21:54:00
4:19 PM,12.2,8.6,85,30.51,10.0,North,4.6,-,0.00,,Scattered Clouds,360,2001-01-01 22:19:00
4:54 PM,12.9,8.1,81,30.60,10.0,North,3.5,-,0.00,,Partly Cloudy,360,2001-01-01 22:54:00
5:54 PM,10.0,5.0,80,30.62,10.0,Calm,Calm,-,N/A,,Clear,0,2001-01-01 23:54:00
6:54 PM,3.0,-0.0,87,30.66,10.0,North,3.5,-,N/A,,Partly Cloudy,10,2001-01-02 00:54:00
7:54 PM,1.9,-0.9,88,30.66,9.0,WNW,4.6,-,0.00,Snow,Light Snow,290,2001-01-02 01:54:00
8:39 PM,1.4,-2.2,85,30.57,10.0,West,4.6,-,0.00,Snow,Light Snow,280,2001-01-02 02:39:00
8:54 PM,-0.9,-5.1,83,30.68,10.0,Calm,Calm,-,0.00,,Scattered Clouds,0,2001-01-02 02:54:00
9:07 PM,-2.2,-7.6,78,30.58,10.0,NNE,4.6,-,N/A,,Mostly Cloudy,30,2001-01-02 03:07:00
9:54 PM,1.9,-2.0,83,30.68,9.0,North,4.6,-,0.00,Snow,Light Snow,10,2001-01-02 03:54:00
10:07 PM,1.4,-0.4,92,30.57,8.0,North,4.6,-,0.00,Snow,Light Snow,350,2001-01-02 04:07:00
10:54 PM,1.9,-2.0,83,30.68,9.0,NNW,3.5,-,0.00,Snow,Light Snow,340,2001-01-02 04:54:00
11:54 PM,3.0,-0.9,84,30.70,9.0,Calm,Calm,-,0.00,Snow,Light Snow,0,2001-01-02 05:54:00